Time;durP1;ratioP1;P1;durP2;ratioP2;P2;SDS_P1;SDS_P2;PMS_P1;PMS_P2;Temp;Humidity;BMP_temperature;BMP_pressure;BME280_temperature;BME280_humidity;BME280_pressure;Samples;Min_cycle;Max_cycle;Signal;HPM_P1;HPM_P2
2022/06/02 00:01:36;;;;;;;18.03;8.07;;;;;;;20.27;68.80;100494.83;124691;1099;102781;-78
2022/06/02 00:04:16;;;;;;;16.60;8.63;;;;;;;20.27;68.91;100489.50;124631;1099;101837;-78
2022/06/02 00:06:53;;;;;;;16.97;8.40;;;;;;;20.26;69.40;100495.71;124959;1099;104198;-78
2022/06/02 00:09:36;;;;;;;15.43;8.73;;;;;;;20.25;69.02;100501.92;124613;1102;102810;-77
2022/06/02 00:12:23;;;;;;;17.32;8.53;;;;;;;20.23;68.78;100492.19;124849;1099;102062;-77
2022/06/02 00:15:07;;;;;;;16.70;9.10;;;;;;;20.23;69.26;100492.19;125351;1099;102861;-78
2022/06/02 00:17:47;;;;;;;17.23;8.63;;;;;;;20.19;69.12;100491.29;125399;1099;104169;-78
2022/06/02 00:20:25;;;;;;;16.17;9.30;;;;;;;20.14;69.19;100493.09;124483;1099;104242;-78
2022/06/02 00:23:12;;;;;;;17.50;9.15;;;;;;;20.09;70.36;100493.11;124578;1099;104230;-78
2022/06/02 00:25:54;;;;;;;15.40;8.60;;;;;;;20.05;70.20;100486.02;125197;1099;104048;-78
2022/06/02 00:28:32;;;;;;;18.63;8.63;;;;;;;20.02;69.91;100493.13;124738;1099;102817;-78
2022/06/02 00:31:14;;;;;;;18.57;8.87;;;;;;;19.99;70.58;100493.14;124713;1099;103574;-79
2022/06/02 00:33:56;;;;;;;17.10;9.23;;;;;;;19.94;70.15;100495.82;124748;1102;104265;-78
2022/06/02 00:36:35;;;;;;;18.13;8.67;;;;;;;19.89;70.49;100494.95;124562;1099;104935;-78
2022/06/02 00:39:09;;;;;;;15.97;8.83;;;;;;;19.84;70.77;100489.64;124971;1099;104225;-78
2022/06/02 00:41:51;;;;;;;17.93;8.77;;;;;;;19.84;70.69;100488.77;125951;1099;102410;-78
2022/06/02 00:44:33;;;;;;;16.00;8.67;;;;;;;19.82;70.91;100487.86;125079;1099;103113;-78
2022/06/02 00:47:28;;;;;;;16.73;8.03;;;;;;;19.78;71.81;100505.63;125335;1099;104386;-77
2022/06/02 00:50:09;;;;;;;17.67;8.73;;;;;;;19.68;71.64;100499.41;126107;1099;102242;-78
2022/06/02 00:53:02;;;;;;;18.17;8.67;;;;;;;19.63;72.30;100501.17;126065;1099;104217;-78
2022/06/02 00:58:58;;;;;;;17.07;8.93;;;;;;;19.49;72.57;100505.63;125134;1099;102804;-78
2022/06/02 01:01:32;;;;;;;18.27;9.03;;;;;;;19.44;73.02;100510.08;125183;1099;104239;-78
2022/06/02 01:04:06;;;;;;;17.30;8.77;;;;;;;19.40;72.67;100514.52;125131;1099;104159;-79
2022/06/02 01:06:54;;;;;;;15.47;8.60;;;;;;;19.34;72.46;100512.74;125092;1102;104232;-78
2022/06/02 01:09:48;;;;;;;19.00;8.90;;;;;;;19.31;72.95;100515.40;124716;1099;104345;-78
2022/06/02 01:12:35;;;;;;;17.17;8.38;;;;;;;19.30;72.82;100518.06;125100;1099;104179;-78
2022/06/02 01:15:16;;;;;;;17.60;8.67;;;;;;;19.29;72.29;100524.26;125506;1099;101870;-78
2022/06/02 01:18:06;;;;;;;14.07;8.20;;;;;;;19.26;73.46;100517.19;125879;1099;104342;-78
2022/06/02 01:20:51;;;;;;;17.53;9.40;;;;;;;19.20;73.30;100517.19;125411;1099;103689;-78
2022/06/02 01:24:09;;;;;;;18.50;8.97;;;;;;;19.21;73.51;100516.27;125663;1099;104198;-77
2022/06/02 01:27:02;;;;;;;17.63;8.77;;;;;;;19.17;74.05;100512.73;125760;1099;104227;-78
2022/06/02 01:29:55;;;;;;;14.93;8.87;;;;;;;19.15;73.46;100510.95;125273;1099;103389;-78
2022/06/02 01:32:32;;;;;;;17.07;8.50;;;;;;;19.12;73.79;100513.61;124748;1099;104252;-78
2022/06/02 01:35:10;;;;;;;15.37;8.83;;;;;;;19.09;74.25;100511.85;124668;1099;102825;-78
2022/06/02 01:37:54;;;;;;;18.73;9.87;;;;;;;19.06;74.11;100510.94;124674;1099;104156;-78
2022/06/02 01:40:37;;;;;;;15.80;8.73;;;;;;;19.02;74.07;100516.25;124660;1099;104220;-78
2022/06/02 01:43:26;;;;;;;17.50;8.67;;;;;;;19.01;73.91;100516.25;125336;1099;104368;-77
2022/06/02 01:46:23;;;;;;;17.77;8.97;;;;;;;18.99;74.23;100510.93;125382;1099;104200;-79
2022/06/02 01:49:05;;;;;;;17.60;9.37;;;;;;;18.96;74.06;100516.24;125820;1099;104060;-79
2022/06/02 01:51:55;;;;;;;18.93;9.07;;;;;;;18.92;74.51;100511.83;125266;1099;103190;-79
2022/06/02 01:54:41;;;;;;;18.20;8.87;;;;;;;18.88;74.51;100507.38;124855;1102;104233;-77
2022/06/02 01:57:31;;;;;;;17.37;9.43;;;;;;;18.83;74.28;100504.67;125175;1102;104294;-78
2022/06/02 02:00:10;;;;;;;18.40;9.40;;;;;;;18.80;74.03;100501.14;124545;1100;104083;-78
2022/06/02 02:02:58;;;;;;;17.07;9.33;;;;;;;18.77;74.55;100506.45;125096;1099;102868;-78
2022/06/02 02:05:44;;;;;;;18.20;9.90;;;;;;;18.74;74.67;100507.31;124927;1099;102874;-78
2022/06/02 02:08:51;;;;;;;16.80;9.40;;;;;;;18.71;74.11;100507.30;124611;1102;102772;-78
2022/06/02 02:11:40;;;;;;;20.37;9.13;;;;;;;18.69;74.39;100503.77;126150;1098;102113;-77
2022/06/02 02:14:22;;;;;;;18.30;9.33;;;;;;;18.66;74.75;100501.98;125940;1099;104079;-78
2022/06/02 02:17:07;;;;;;;18.73;9.57;;;;;;;18.65;74.97;100504.63;125350;1099;104241;-78
2022/06/02 02:19:51;;;;;;;15.60;8.60;;;;;;;18.61;75.12;100511.72;124706;1102;103009;-78
2022/06/02 02:22:36;;;;;;;16.90;9.13;;;;;;;18.58;75.69;100510.83;124677;1098;102785;-79
2022/06/02 02:25:16;;;;;;;19.00;9.20;;;;;;;18.54;75.72;100503.72;124654;1099;104340;-78
2022/06/02 02:28:05;;;;;;;15.97;8.67;;;;;;;18.50;75.75;100505.49;125329;1099;104316;-78
2022/06/02 02:30:51;;;;;;;22.70;10.07;;;;;;;18.45;76.24;100521.41;124812;1099;104181;-78
2022/06/02 02:33:35;;;;;;;16.07;8.70;;;;;;;18.43;75.80;100519.63;125614;1099;104353;-78
2022/06/02 02:36:16;;;;;;;16.27;9.20;;;;;;;18.40;76.06;100516.95;125933;1099;102151;-78
2022/06/02 02:38:59;;;;;;;18.07;9.37;;;;;;;18.38;75.75;100522.27;125155;1099;104191;-78
2022/06/02 02:41:40;;;;;;;19.42;10.03;;;;;;;18.39;76.39;100520.52;125247;1099;104192;-78
2022/06/02 02:44:23;;;;;;;18.87;9.00;;;;;;;18.37;75.87;100514.28;124940;1099;104239;-78
2022/06/02 02:47:03;;;;;;;17.50;9.00;;;;;;;18.38;76.23;100516.08;125276;1102;104255;-77
2022/06/02 02:49:42;;;;;;;19.40;9.53;;;;;;;18.38;76.33;100521.38;124839;1099;104162;-78
2022/06/02 02:52:24;;;;;;;18.80;9.20;;;;;;;18.40;75.85;100515.20;124965;1099;102177;-78
2022/06/02 02:55:03;;;;;;;17.52;8.95;;;;;;;18.40;76.29;100514.30;124782;1099;104201;-77
2022/06/02 02:57:48;;;;;;;16.13;8.80;;;;;;;18.42;76.25;100513.44;124743;1099;103339;-78
2022/06/02 03:00:27;;;;;;;16.03;8.90;;;;;;;18.45;76.35;100510.79;125245;1099;104239;-78
2022/06/02 03:03:17;;;;;;;17.40;8.90;;;;;;;18.49;76.22;100512.55;126006;1099;104194;-78
2022/06/02 03:06:13;;;;;;;16.33;8.90;;;;;;;18.53;76.21;100512.56;125428;1099;102292;-78
2022/06/02 03:08:51;;;;;;;17.17;8.83;;;;;;;18.55;76.28;100516.14;125947;1099;101757;-78
2022/06/02 03:11:54;;;;;;;18.53;8.33;;;;;;;18.58;76.25;100502.86;124939;1099;104229;-78
2022/06/02 03:14:58;;;;;;;17.00;8.80;;;;;;;18.59;76.41;100517.90;125150;1099;102870;-78
2022/06/02 03:17:41;;;;;;;17.25;8.55;;;;;;;18.61;76.80;100521.47;125439;1099;104281;-78
2022/06/02 03:20:21;;;;;;;16.87;8.63;;;;;;;18.62;76.03;100518.82;125215;1099;102774;-79
2022/06/02 03:23:06;;;;;;;20.73;8.73;;;;;;;18.65;76.35;100517.92;124670;1099;104153;-78
2022/06/02 03:25:42;;;;;;;16.57;8.60;;;;;;;18.71;76.38;100523.25;124892;1099;104366;-78
2022/06/02 03:28:23;;;;;;;17.63;8.60;;;;;;;18.76;76.57;100521.52;125122;1099;104188;-78
2022/06/02 03:31:02;;;;;;;15.70;7.80;;;;;;;18.81;76.44;100522.41;125881;1099;104182;-78
2022/06/02 03:33:54;;;;;;;17.27;9.07;;;;;;;18.86;76.03;100533.08;125260;1099;103605;-78
2022/06/02 03:36:42;;;;;;;18.03;8.30;;;;;;;18.88;76.51;100520.67;124726;1099;104166;-78
2022/06/02 03:39:26;;;;;;;17.37;8.53;;;;;;;18.89;76.51;100522.45;125969;1099;102908;-78
2022/06/02 03:42:23;;;;;;;16.93;8.73;;;;;;;18.91;76.24;100525.12;125293;1099;104163;-78
2022/06/02 03:45:14;;;;;;;15.63;7.83;;;;;;;18.95;76.41;100521.59;124974;1099;104272;-77
2022/06/02 03:48:03;;;;;;;15.93;9.17;;;;;;;19.00;76.60;100523.35;124743;1099;104268;-77
2022/06/02 03:51:00;;;;;;;17.80;8.33;;;;;;;19.06;76.98;100521.58;124352;1099;102124;-77
2022/06/02 03:53:47;;;;;;;18.40;8.57;;;;;;;19.12;77.02;100524.24;124559;1099;104327;-77
2022/06/02 03:56:31;;;;;;;18.17;8.57;;;;;;;19.16;76.26;100529.56;124529;1099;102838;-77
2022/06/02 03:59:33;;;;;;;19.33;9.10;;;;;;;19.25;76.48;100531.36;124646;1099;104166;-77
2022/06/02 04:02:08;;;;;;;14.57;7.80;;;;;;;19.32;76.11;100522.51;124926;1099;104177;-77
2022/06/02 04:04:53;;;;;;;15.57;8.17;;;;;;;19.38;76.88;100521.60;124819;1098;102897;-77
2022/06/02 04:07:35;;;;;;;14.33;7.87;;;;;;;19.44;76.80;100515.40;125070;1099;104185;-77
2022/06/02 04:10:23;;;;;;;15.87;8.00;;;;;;;19.50;76.58;100520.72;124439;1099;110244;-78
2022/06/02 04:17:17;;;;;;;16.87;8.30;;;;;;;19.63;76.38;100522.47;125964;1099;101919;-79
2022/06/02 04:27:20;;;;;;;14.17;8.13;;;;;;;19.82;76.44;100523.38;126029;1099;104118;-79
2022/06/02 04:30:19;;;;;;;16.13;8.27;;;;;;;19.91;75.96;100523.36;126064;1099;102920;-79
2022/06/02 04:39:58;;;;;;;16.33;8.10;;;;;;;20.18;75.87;100516.18;126057;1099;104213;-78
2022/06/02 04:42:48;;;;;;;18.00;7.93;;;;;;;20.28;75.73;100525.02;124818;1099;110558;-79
2022/06/02 04:45:30;;;;;;;15.23;8.07;;;;;;;20.38;76.33;100528.52;124624;1100;104300;-78
2022/06/02 04:48:10;;;;;;;13.67;7.40;;;;;;;20.45;76.13;100523.16;124376;1099;102983;-78
2022/06/02 04:50:48;;;;;;;15.30;7.77;;;;;;;20.55;75.31;100517.78;124630;1099;102845;-78
2022/06/02 04:53:36;;;;;;;14.63;7.60;;;;;;;20.63;76.16;100521.28;125347;1099;104118;-79
2022/06/02 04:56:18;;;;;;;14.17;7.40;;;;;;;20.70;75.12;100520.41;124668;1099;104243;-78
2022/06/02 04:59:00;;;;;;;12.37;7.30;;;;;;;20.78;75.78;100521.23;124478;1099;102932;-78
2022/06/02 05:01:42;;;;;;;13.35;7.30;;;;;;;20.88;74.87;100518.52;125353;1099;104169;-78
2022/06/02 05:04:25;;;;;;;17.03;8.20;;;;;;;20.96;75.21;100524.70;124793;1099;102303;-78
2022/06/02 05:07:17;;;;;;;17.43;7.23;;;;;;;21.04;75.06;100525.53;124885;1099;104210;-79
2022/06/02 05:10:03;;;;;;;17.07;7.77;;;;;;;21.12;73.89;100521.02;124553;1099;102801;-79
2022/06/02 05:12:46;;;;;;;16.87;7.50;;;;;;;21.21;74.65;100524.50;124472;1099;102597;-78
2022/06/02 05:15:35;;;;;;;15.97;7.77;;;;;;;21.29;74.34;100525.35;124361;1099;104163;-79
2022/06/02 05:18:28;;;;;;;19.93;7.80;;;;;;;21.38;74.25;100519.94;124490;1099;104185;-79
2022/06/02 05:21:25;;;;;;;15.20;7.53;;;;;;;21.47;74.54;100521.63;125319;1099;104208;-79
2022/06/02 05:24:31;;;;;;;13.20;7.50;;;;;;;21.52;74.22;100519.86;124420;1099;109821;-78
2022/06/02 05:27:39;;;;;;;18.10;7.85;;;;;;;21.64;73.36;100519.71;124513;1099;104159;-78
2022/06/02 05:30:47;;;;;;;20.07;7.73;;;;;;;21.73;73.64;100530.30;124536;1099;104169;-79
2022/06/02 05:33:48;;;;;;;17.80;7.60;;;;;;;21.82;72.96;100529.34;124549;1099;104249;-79
2022/06/02 05:36:51;;;;;;;16.17;7.87;;;;;;;21.92;73.52;100537.26;124605;1099;104354;-79
2022/06/02 05:39:42;;;;;;;16.90;7.70;;;;;;;22.02;72.41;100537.14;124584;1102;102552;-79
2022/06/02 05:42:28;;;;;;;23.20;8.20;;;;;;;22.10;72.54;100525.50;124828;1099;104210;-77
2022/06/02 05:45:17;;;;;;;17.93;7.70;;;;;;;22.17;72.44;100521.84;125206;1099;103643;-80
2022/06/02 05:48:09;;;;;;;17.33;7.20;;;;;;;22.28;72.04;100522.58;124680;1102;104159;-79
2022/06/02 05:50:50;;;;;;;14.57;7.60;;;;;;;22.37;72.17;100525.17;125085;1099;102982;-79
2022/06/02 05:53:38;;;;;;;16.70;7.53;;;;;;;22.47;72.12;100530.41;124866;1102;104241;-79
2022/06/02 05:56:26;;;;;;;18.50;7.87;;;;;;;22.58;71.43;100533.85;124753;1099;102892;-79
2022/06/02 05:59:22;;;;;;;17.17;7.67;;;;;;;22.68;71.74;100540.83;124938;1099;103206;-79
2022/06/02 06:02:19;;;;;;;18.77;8.33;;;;;;;22.78;70.91;100539.80;124740;1099;103295;-78
2022/06/02 06:08:31;;;;;;;15.87;7.37;;;;;;;22.96;70.53;100543.98;125790;1099;102887;-79
2022/06/02 06:11:20;;;;;;;19.93;8.27;;;;;;;23.07;70.70;100543.83;125834;1099;104178;-79
2022/06/02 06:14:07;;;;;;;18.40;8.43;;;;;;;23.18;70.26;100541.02;125465;1102;102777;-78
2022/06/02 06:16:45;;;;;;;21.43;8.07;;;;;;;23.28;70.04;100531.95;125637;1099;102089;-80
2022/06/02 06:19:39;;;;;;;16.60;8.17;;;;;;;23.40;70.32;100543.36;124756;1102;104264;-79
2022/06/02 06:22:36;;;;;;;17.87;7.83;;;;;;;23.50;69.86;100532.47;125565;1099;103263;-79
2022/06/02 06:25:40;;;;;;;18.50;7.80;;;;;;;23.63;69.36;100537.61;124812;1099;102660;-79
2022/06/02 06:28:18;;;;;;;21.17;7.90;;;;;;;23.75;69.54;100537.39;125836;1098;104194;-80
2022/06/02 06:31:06;;;;;;;20.70;7.90;;;;;;;23.85;69.04;100543.49;125476;1099;104176;-77
2022/06/02 06:33:56;;;;;;;17.20;7.50;;;;;;;23.96;69.29;100535.25;125704;1099;104105;-78
2022/06/02 06:37:06;;;;;;;21.07;8.53;;;;;;;24.07;69.15;100535.05;124676;1099;104182;-77
2022/06/02 06:39:58;;;;;;;21.70;7.50;;;;;;;24.20;68.80;100537.46;125409;1099;103584;-78
2022/06/02 06:42:46;;;;;;;21.07;8.43;;;;;;;24.33;68.83;100539.89;125356;1099;103828;-78
2022/06/02 06:45:44;;;;;;;20.20;8.33;;;;;;;24.46;68.38;100544.06;125387;1099;102894;-78
2022/06/02 06:48:27;;;;;;;22.00;7.90;;;;;;;24.60;68.12;100546.49;125300;1099;104176;-79
2022/06/02 06:51:10;;;;;;;20.35;7.72;;;;;;;24.78;67.44;100549.68;125464;1099;103211;-78
2022/06/02 06:53:59;;;;;;;18.70;7.37;;;;;;;24.90;66.90;100542.26;125832;1099;102669;-77
2022/06/02 06:56:50;;;;;;;20.73;7.83;;;;;;;25.00;66.49;100542.92;125458;1099;103016;-77
2022/06/02 06:59:40;;;;;;;24.03;7.80;;;;;;;25.17;65.93;100547.89;126117;1099;104038;-78
2022/06/02 07:02:32;;;;;;;21.83;7.17;;;;;;;25.34;65.62;100546.61;125996;1099;103832;-78
2022/06/02 07:05:21;;;;;;;23.43;8.30;;;;;;;25.46;65.52;100547.22;125940;1099;104208;-78
2022/06/02 07:08:03;;;;;;;18.77;7.13;;;;;;;25.72;64.69;100537.58;125136;1099;104641;-80
2022/06/02 07:10:55;;;;;;;19.43;7.87;;;;;;;25.94;64.39;100543.25;124771;1099;103291;-79
2022/06/02 07:13:46;;;;;;;25.03;7.63;;;;;;;26.19;63.78;100539.92;126146;1099;102528;-79
2022/06/02 07:16:41;;;;;;;19.13;7.10;;;;;;;26.32;63.09;100535.09;126062;1099;104249;-79
2022/06/02 07:19:29;;;;;;;20.23;7.50;;;;;;;26.45;62.24;100544.55;125550;1099;102605;-80
2022/06/02 07:22:13;;;;;;;18.20;7.53;;;;;;;26.62;61.98;100541.36;126081;1099;104179;-80
2022/06/02 07:25:00;;;;;;;18.70;7.00;;;;;;;26.78;62.17;100540.92;125519;1099;103962;-78
2022/06/02 07:28:00;;;;;;;16.83;6.83;;;;;;;26.97;61.42;100543.91;125097;1099;104249;-79
2022/06/02 07:30:58;;;;;;;17.70;7.30;;;;;;;27.19;60.73;100545.00;126166;1099;102880;-78
2022/06/02 07:37:05;;;;;;;15.87;6.77;;;;;;;27.68;59.45;100541.63;126023;1099;104134;-78
2022/06/02 07:40:23;;;;;;;17.20;6.50;;;;;;;27.80;58.97;100541.20;125136;1099;104195;-78
2022/06/02 07:43:39;;;;;;;11.47;5.43;;;;;;;28.10;57.84;100539.23;125599;1099;104255;-79
2022/06/02 07:47:01;;;;;;;17.07;5.60;;;;;;;28.45;55.95;100545.11;126161;1099;103975;-78
2022/06/02 07:50:23;;;;;;;;;;;;;;;;;;;;;
2022/06/02 07:53:13;;;;;;;12.03;5.00;;;;;;;28.80;55.00;100542.05;125172;1102;103886;-78
2022/06/02 07:55:59;;;;;;;17.53;6.00;;;;;;;28.93;54.78;100539.73;125353;1102;103455;-79
2022/06/02 07:58:44;;;;;;;14.47;5.57;;;;;;;29.01;54.36;100540.30;124625;1102;108312;-79
2022/06/02 08:02:10;;;;;;;14.63;5.17;;;;;;;29.13;54.45;100547.03;125443;1102;102636;-78
2022/06/02 08:04:54;;;;;;;15.57;6.43;;;;;;;29.27;53.38;100541.09;124484;1102;104371;-79
2022/06/02 08:07:34;;;;;;;10.63;5.53;;;;;;;29.48;53.22;100534.80;125367;1101;104175;-78
2022/06/02 08:10:23;;;;;;;12.40;5.23;;;;;;;29.65;53.50;100543.98;125359;1102;104098;-79
2022/06/02 08:13:17;;;;;;;12.40;5.90;;;;;;;29.76;52.28;100534.47;125066;1104;102911;-78
2022/06/02 08:16:03;;;;;;;15.63;5.83;;;;;;;29.98;50.74;100541.67;125246;1102;104222;-79
2022/06/02 08:18:50;;;;;;;10.70;5.50;;;;;;;30.26;50.43;100543.11;125295;1102;104178;-80
2022/06/02 08:21:32;;;;;;;8.50;4.80;;;;;;;30.46;48.58;100540.42;124606;1099;103057;-78
2022/06/02 08:24:36;;;;;;;9.10;4.63;;;;;;;30.67;47.22;100534.03;125375;1099;104219;-79
2022/06/02 08:27:55;;;;;;;12.63;4.80;;;;;;;30.94;47.04;100539.97;125164;1102;103000;-79
2022/06/02 08:30:36;;;;;;;11.83;5.05;;;;;;;30.99;46.24;100543.36;124449;1102;104128;-78
2022/06/02 08:33:48;;;;;;;;;;;;;;;;;;;;;
2022/06/02 08:36:29;;;;;;;13.50;4.90;;;;;;;30.96;45.22;100541.66;125039;1103;102031;-78
2022/06/02 08:39:26;;;;;;;13.07;4.50;;;;;;;30.99;44.86;100546.96;125060;1102;102677;-78
2022/06/02 08:42:33;;;;;;;13.53;4.67;;;;;;;31.08;44.86;100545.61;124279;1102;104354;-82
2022/06/02 08:45:55;;;;;;;11.80;4.70;;;;;;;31.10;44.53;100538.27;125041;1102;104125;-80
2022/06/02 08:49:05;;;;;;;11.27;4.80;;;;;;;31.25;43.52;100541.20;125172;1102;104831;-79
2022/06/02 08:52:37;;;;;;;;;;;;;;;;;;;;;
2022/06/02 08:56:06;;;;;;;11.37;5.40;;;;;;;31.46;43.28;100544.64;125201;1105;102541;-80
2022/06/02 08:59:09;;;;;;;7.97;4.10;;;;;;;31.48;41.96;100545.47;125006;1103;104331;-80
2022/06/02 09:02:04;;;;;;;10.13;4.33;;;;;;;31.61;42.01;100553.88;124577;1103;103182;-80
2022/06/02 09:05:10;;;;;;;11.50;4.60;;;;;;;31.74;41.98;100537.84;125349;1102;104179;-80
2022/06/02 09:07:57;;;;;;;8.67;4.40;;;;;;;31.66;40.61;100539.10;125479;1099;102003;-79
2022/06/02 09:10:46;;;;;;;11.27;4.77;;;;;;;31.49;39.33;100541.78;125162;1099;120011;-80
2022/06/02 09:13:59;;;;;;;7.53;4.23;;;;;;;31.56;40.11;100534.27;126217;1099;104185;-82
2022/06/02 09:16:43;;;;;;;11.30;5.00;;;;;;;31.36;39.48;100534.27;126172;1099;102972;-81
2022/06/02 09:19:42;;;;;;;11.23;4.70;;;;;;;31.42;38.85;100538.52;126163;1099;104804;-80
2022/06/02 09:22:38;;;;;;;13.17;4.93;;;;;;;31.58;38.59;100538.63;126186;1098;103646;-82
2022/06/02 09:25:29;;;;;;;9.47;4.40;;;;;;;31.74;38.82;100535.99;126141;1099;104168;-78
2022/06/02 09:28:49;;;;;;;8.90;4.97;;;;;;;31.72;38.49;100532.49;126129;1099;102923;-81
2022/06/02 09:31:49;;;;;;;11.03;4.60;;;;;;;31.52;38.29;100542.52;125573;1099;103811;-81
2022/06/02 09:34:57;;;;;;;8.77;4.40;;;;;;;31.44;38.83;100528.45;126205;1099;104229;-81
2022/06/02 09:38:26;;;;;;;10.13;4.67;;;;;;;31.53;38.66;100528.02;126195;1099;104159;-79
2022/06/02 09:41:17;;;;;;;10.50;4.37;;;;;;;31.71;38.65;100531.63;125636;1103;103552;-78
2022/06/02 09:44:15;;;;;;;6.97;4.50;;;;;;;31.83;38.30;100532.80;125467;1102;104348;-77
2022/06/02 09:47:24;;;;;;;12.87;4.30;;;;;;;31.94;37.53;100531.36;124550;1102;104073;-80
2022/06/02 09:50:27;;;;;;;11.50;4.57;;;;;;;32.01;37.63;100528.25;124644;1102;103177;-77
2022/06/02 09:53:21;;;;;;;7.67;4.10;;;;;;;31.98;36.79;100530.26;124582;1102;103842;-78
2022/06/02 09:56:10;;;;;;;8.17;4.23;;;;;;;31.84;36.62;100531.85;125486;1102;102881;-79
2022/06/02 09:58:57;;;;;;;8.00;4.30;;;;;;;31.90;36.36;100526.09;124759;1102;102534;-80
2022/06/02 10:01:41;;;;;;;7.67;4.30;;;;;;;31.96;36.49;100521.30;125107;1102;103201;-77
2022/06/02 10:04:34;;;;;;;9.47;4.13;;;;;;;31.95;35.94;100519.56;125667;1102;104226;-79
2022/06/02 10:07:25;;;;;;;10.60;4.20;;;;;;;31.83;35.57;100519.23;125833;1102;103740;-80
2022/06/02 10:10:39;;;;;;;10.50;4.80;;;;;;;31.81;35.67;100526.59;125360;1102;102855;-79
2022/06/02 10:13:58;;;;;;;7.40;3.85;;;;;;;31.83;35.87;100512.94;124571;1102;102711;-78
2022/06/02 10:17:03;;;;;;;6.73;4.07;;;;;;;31.82;36.05;100503.94;124658;1106;103380;-78
2022/06/02 10:20:06;;;;;;;12.00;4.43;;;;;;;31.58;35.87;100510.64;124395;1106;104897;-79
2022/06/02 10:22:49;;;;;;;11.00;4.37;;;;;;;31.30;35.75;100512.89;124495;1105;102657;-78
2022/06/02 10:25:43;;;;;;;14.90;4.40;;;;;;;31.13;36.12;100511.03;124549;1103;104180;-78
2022/06/02 10:28:48;;;;;;;9.17;4.20;;;;;;;30.97;36.03;100507.34;124438;1105;104309;-77
2022/06/02 10:31:43;;;;;;;12.30;4.77;;;;;;;31.08;36.07;100504.10;124370;1106;104358;-77
2022/06/02 10:35:05;;;;;;;13.57;4.70;;;;;;;31.29;36.00;100499.41;124492;1105;102622;-77
2022/06/02 10:38:37;;;;;;;8.67;4.27;;;;;;;31.46;35.60;100487.70;124884;1105;102419;-78
2022/06/02 10:41:24;;;;;;;9.53;4.30;;;;;;;31.53;35.07;100489.16;124818;1102;103260;-77
2022/06/02 10:44:15;;;;;;;8.73;4.10;;;;;;;31.64;35.25;100491.34;125557;1102;104332;-78
2022/06/02 10:47:26;;;;;;;9.57;4.20;;;;;;;31.49;34.91;100483.03;124639;1102;103744;-76
2022/06/02 10:50:09;;;;;;;9.90;4.40;;;;;;;31.52;35.03;100479.26;125072;1099;102716;-78
2022/06/02 10:53:23;;;;;;;12.50;4.40;;;;;;;31.64;35.21;100478.65;124929;1100;104235;-77
2022/06/02 10:56:24;;;;;;;8.80;3.90;;;;;;;31.85;35.14;100479.36;125572;1099;102858;-79
2022/06/02 10:59:29;;;;;;;9.90;4.17;;;;;;;32.04;35.00;100471.09;126111;1099;104261;-81
2022/06/02 11:02:18;;;;;;;;;;;;;;;32.25;35.15;100471.77;126294;1099;104536;-78
2022/06/02 11:05:17;;;;;;;10.70;4.70;;;;;;;32.43;35.15;100469.88;124794;1099;104227;-77
2022/06/02 11:08:44;;;;;;;8.60;4.63;;;;;;;32.51;34.37;100465.86;125592;1099;102987;-79
2022/06/02 11:11:57;;;;;;;7.17;4.20;;;;;;;32.55;34.68;100462.89;126233;1099;104121;-79
2022/06/02 11:15:04;;;;;;;10.83;4.40;;;;;;;32.65;34.07;100460.55;126157;1099;104175;-78
2022/06/02 11:18:11;;;;;;;12.57;4.57;;;;;;;32.67;33.96;100449.59;124808;1099;103137;-79
2022/06/02 11:21:32;;;;;;;11.00;4.60;;;;;;;32.80;34.14;100450.61;124837;1098;104689;-79
2022/06/02 11:24:33;;;;;;;9.50;4.20;;;;;;;33.01;33.98;100455.78;125068;1099;102401;-79
2022/06/02 11:31:36;;;;;;;8.90;4.40;;;;;;;33.35;33.12;100440.18;125695;1102;103207;-78
2022/06/02 11:38:44;;;;;;;6.27;4.00;;;;;;;33.59;32.84;100432.38;125280;1105;104893;-79
2022/06/02 11:41:48;;;;;;;7.77;4.00;;;;;;;33.47;32.39;100434.00;125132;1105;102458;-77
2022/06/02 11:45:08;;;;;;;8.57;4.30;;;;;;;33.49;32.42;100437.52;125310;1105;118989;-77
2022/06/02 11:48:24;;;;;;;8.50;3.93;;;;;;;33.44;32.39;100437.80;125515;1105;104389;-79
2022/06/02 11:55:32;;;;;;;11.80;4.20;;;;;;;33.34;31.84;100424.86;125731;1103;111507;-79
2022/06/02 11:58:38;;;;;;;9.55;4.10;;;;;;;33.29;31.94;100434.16;125450;1103;104226;-81
2022/06/02 12:20:53;;;;;;;6.87;3.80;;;;;;;33.44;31.22;100399.72;124719;1102;104080;-77
2022/06/02 12:23:57;;;;;;;10.00;4.20;;;;;;;33.49;31.08;100399.44;125449;1105;104137;-79
2022/06/02 12:27:07;;;;;;;9.47;4.00;;;;;;;33.52;30.86;100390.19;125268;1105;103111;-79
2022/06/02 12:30:32;;;;;;;11.97;4.20;;;;;;;33.58;30.97;100397.97;124946;1108;104162;-78
2022/06/02 12:33:28;;;;;;;9.03;4.03;;;;;;;33.56;31.06;100384.47;124944;1109;102610;-78
2022/06/02 12:36:31;;;;;;;7.60;3.90;;;;;;;33.55;30.84;100390.91;124921;1109;102692;-79
2022/06/02 12:39:44;;;;;;;6.77;4.07;;;;;;;33.39;30.99;100388.23;124925;1109;102588;-82
2022/06/02 12:42:54;;;;;;;9.77;4.43;;;;;;;33.41;30.69;100380.88;125004;1109;103375;-78
2022/06/02 12:45:55;;;;;;;10.17;4.00;;;;;;;33.44;30.16;100388.84;125383;1109;102786;-80
2022/06/02 12:49:12;;;;;;;8.40;4.20;;;;;;;33.49;30.06;100389.42;125364;1109;102819;-79
2022/06/02 12:52:38;;;;;;;7.87;4.00;;;;;;;33.47;29.16;100376.88;125724;1105;102652;-79
2022/06/02 12:55:36;;;;;;;10.30;4.00;;;;;;;33.30;29.20;100365.22;125370;1105;103632;-80
2022/06/02 12:58:51;;;;;;;7.83;4.47;;;;;;;33.34;29.36;100367.75;124896;1106;103980;-79
2022/06/02 13:02:07;;;;;;;11.10;4.30;;;;;;;33.44;29.92;100368.91;125455;1105;118735;-82
2022/06/02 13:05:12;;;;;;;10.37;3.93;;;;;;;33.50;29.11;100373.97;125129;1112;104121;-80
2022/06/02 13:08:20;;;;;;;9.63;4.23;;;;;;;33.56;28.97;100362.71;124999;1109;102990;-80
2022/06/02 13:11:15;;;;;;;7.97;3.90;;;;;;;33.62;28.82;100364.18;125199;1109;102704;-79
2022/06/02 13:15:01;;;;;;;7.43;3.57;;;;;;;33.63;28.53;100365.94;125384;1109;102516;-81
2022/06/02 13:21:52;;;;;;;9.05;3.80;;;;;;;33.78;28.36;100364.11;125386;1109;103430;-79
2022/06/02 13:57:38;;;;;;;10.17;3.77;;;;;;;33.59;27.76;100357.08;125354;1102;106643;-80
2022/06/02 14:00:47;;;;;;;8.60;4.10;;;;;;;33.61;27.79;100357.88;125382;1105;104597;-79
2022/06/02 14:03:46;;;;;;;7.93;3.30;;;;;;;33.43;28.14;100353.59;125623;1102;104185;-79
2022/06/02 14:06:25;;;;;;;9.27;3.50;;;;;;;33.15;28.92;100356.12;125552;1099;102997;-79
2022/06/02 14:09:24;;;;;;;8.10;3.43;;;;;;;32.92;29.29;100360.23;125509;1103;104220;-79
2022/06/02 14:12:12;;;;;;;9.27;4.23;;;;;;;32.73;29.58;100356.88;125587;1099;104935;-78
2022/06/02 14:15:14;;;;;;;7.97;3.60;;;;;;;32.54;29.79;100357.92;125674;1099;102523;-79
2022/06/02 14:18:09;;;;;;;8.67;3.70;;;;;;;32.32;29.86;100357.40;125472;1102;119141;-80
2022/06/02 14:20:54;;;;;;;10.93;3.73;;;;;;;32.11;30.31;100354.09;124658;1099;104258;-78
2022/06/02 14:23:51;;;;;;;7.73;3.50;;;;;;;31.96;30.36;100347.64;124679;1102;104237;-78
2022/06/02 14:26:32;;;;;;;9.77;3.60;;;;;;;31.81;30.73;100342.13;125192;1099;104235;-78
2022/06/02 14:29:18;;;;;;;9.50;3.60;;;;;;;31.82;30.70;100343.88;124777;1102;103256;-78
2022/06/02 14:32:31;;;;;;;11.50;3.70;;;;;;;31.92;30.80;100332.52;125970;1099;102938;-79
2022/06/02 14:36:12;;;;;;;6.77;3.67;;;;;;;32.00;30.77;100330.23;125984;1102;102202;-79
2022/06/02 14:39:43;;;;;;;9.77;3.40;;;;;;;32.12;30.90;100321.44;125665;1099;102269;-77
2022/06/02 14:46:31;;;;;;;5.93;3.47;;;;;;;32.16;31.00;100320.28;125705;1105;102327;-79
2022/06/02 14:49:41;;;;;;;10.88;3.42;;;;;;;32.21;31.10;100310.05;117070;1103;10001686;-78